Time;durP1;ratioP1;P1;durP2;ratioP2;P2;SDS_P1;SDS_P2;PMS_P1;PMS_P2;Temp;Humidity;BMP_temperature;BMP_pressure;BME280_temperature;BME280_humidity;BME280_pressure;Samples;Min_cycle;Max_cycle;Signal;HPM_P1;HPM_P2
2023/01/09 00:00:11;;;;;;;4.07;1.73;;;;;;;-145.18;100.00;60484.78;5042265;28;20068;-68
2023/01/09 00:02:39;;;;;;;5.90;2.23;;;;;;;-145.18;100.00;60484.78;5037718;28;20086;-69
2023/01/09 00:05:06;;;;;;;4.47;1.70;;;;;;;-145.18;100.00;60484.78;5047241;28;20033;-68
2023/01/09 00:07:31;;;;;;;5.87;2.10;;;;;;;-145.18;100.00;60484.78;5032828;28;20052;-69
2023/01/09 00:09:56;;;;;;;3.80;1.80;;;;;;;-145.18;100.00;60484.78;5032667;28;20061;-69
2023/01/09 00:12:22;;;;;;;6.60;2.03;;;;;;;-145.18;100.00;60484.78;5032306;28;20034;-68
2023/01/09 00:14:47;;;;;;;5.33;1.70;;;;;;;-145.18;100.00;60484.78;5032196;28;20029;-69
2023/01/09 00:17:12;;;;;;;5.63;1.90;;;;;;;-145.18;100.00;60484.78;5048432;28;20033;-68
2023/01/09 00:19:38;;;;;;;4.23;1.57;;;;;;;-145.18;100.00;60484.78;5049098;28;20807;-69
2023/01/09 00:22:05;;;;;;;5.53;2.03;;;;;;;-145.18;100.00;60484.78;5034289;28;20036;-69
2023/01/09 00:24:31;;;;;;;3.80;1.70;;;;;;;-145.18;100.00;60484.78;5036706;28;20112;-69
2023/01/09 00:26:56;;;;;;;4.57;2.00;;;;;;;-145.18;100.00;60484.78;5046808;28;20187;-68
2023/01/09 00:29:21;;;;;;;5.67;1.80;;;;;;;-145.18;100.00;60484.78;5051674;28;20025;-69
2023/01/09 00:31:47;;;;;;;4.03;1.97;;;;;;;-145.18;100.00;60484.78;5051456;28;20050;-68
2023/01/09 00:34:12;;;;;;;4.37;1.60;;;;;;;-145.18;100.00;60484.78;5041767;28;20040;-69
2023/01/09 00:36:37;;;;;;;4.23;2.03;;;;;;;-145.18;100.00;60484.78;5043778;28;20041;-69
2023/01/09 00:39:04;;;;;;;6.83;1.97;;;;;;;-145.18;100.00;60484.78;5036643;28;20602;-68
2023/01/09 00:41:42;;;;;;;3.97;1.90;;;;;;;-145.18;100.00;60484.78;5051542;28;20099;-68
2023/01/09 00:44:14;;;;;;;4.80;2.10;;;;;;;-145.18;100.00;60484.78;5052380;28;20350;-69
2023/01/09 00:46:44;;;;;;;6.73;2.40;;;;;;;-145.18;100.00;60484.78;5052113;28;20525;-69
2023/01/09 00:49:11;;;;;;;5.93;2.47;;;;;;;-145.18;100.00;60484.78;5052145;28;20036;-69
2023/01/09 00:51:39;;;;;;;5.37;2.20;;;;;;;-145.18;100.00;60484.78;5043575;28;20183;-69
2023/01/09 00:54:04;;;;;;;5.87;2.13;;;;;;;-145.18;100.00;60484.78;5048304;28;20384;-69
2023/01/09 00:56:31;;;;;;;5.80;2.13;;;;;;;-145.18;100.00;60484.78;5048538;28;20017;-68
2023/01/09 00:58:56;;;;;;;7.63;2.87;;;;;;;-145.18;100.00;60484.78;5031985;28;20029;-68
2023/01/09 01:01:22;;;;;;;4.53;1.93;;;;;;;-145.18;100.00;60484.78;5031681;28;20389;-69
2023/01/09 01:03:47;;;;;;;4.40;2.13;;;;;;;-145.18;100.00;60484.78;5031754;28;20029;-69
2023/01/09 01:08:56;;;;;;;5.83;2.57;;;;;;;-145.18;100.00;60484.78;5042041;28;20082;-68
2023/01/09 01:11:22;;;;;;;5.67;2.57;;;;;;;-145.18;100.00;60484.78;5051497;28;20037;-69
2023/01/09 01:13:48;;;;;;;6.43;2.80;;;;;;;-145.18;100.00;60484.78;5051550;28;20039;-68
2023/01/09 01:16:13;;;;;;;6.80;2.73;;;;;;;-145.18;100.00;60484.78;5051666;28;20550;-69
2023/01/09 01:18:40;;;;;;;5.57;2.60;;;;;;;-145.18;100.00;60484.78;5051355;28;20440;-69
2023/01/09 01:21:10;;;;;;;7.00;2.83;;;;;;;-145.18;100.00;60484.78;5051421;28;20100;-68
2023/01/09 01:23:36;;;;;;;7.20;2.80;;;;;;;-145.18;100.00;60484.78;5051128;28;20067;-69
2023/01/09 01:26:07;;;;;;;6.37;2.93;;;;;;;-145.18;100.00;60484.78;5051063;28;20044;-68
2023/01/09 01:28:32;;;;;;;5.67;2.83;;;;;;;-145.18;100.00;60484.78;5051032;28;20404;-69
2023/01/09 01:30:58;;;;;;;5.37;2.90;;;;;;;-145.18;100.00;60484.78;5041850;28;20029;-69
2023/01/09 01:33:24;;;;;;;7.53;2.97;;;;;;;-145.18;100.00;60484.78;5048703;28;20037;-69
2023/01/09 01:35:49;;;;;;;8.10;3.00;;;;;;;-145.18;100.00;60484.78;5040637;28;20029;-68
2023/01/09 01:38:14;;;;;;;9.67;3.57;;;;;;;-145.18;100.00;60484.78;5050014;28;20067;-69
2023/01/09 01:40:40;;;;;;;6.30;2.67;;;;;;;-145.18;100.00;60484.78;5049125;28;20029;-68
2023/01/09 01:43:08;;;;;;;8.33;3.30;;;;;;;-145.18;100.00;60484.78;5053504;28;20435;-69
2023/01/09 01:45:34;;;;;;;6.43;3.13;;;;;;;-145.18;100.00;60484.78;5054727;28;20496;-69
2023/01/09 01:48:11;;;;;;;7.00;3.07;;;;;;;-145.18;100.00;60484.78;5054887;28;20033;-68
2023/01/09 01:50:47;;;;;;;7.23;3.67;;;;;;;-145.18;100.00;60484.78;5054347;28;20021;-69
2023/01/09 01:53:23;;;;;;;8.77;3.47;;;;;;;-145.18;100.00;60484.78;5044403;28;20033;-68
2023/01/09 01:55:54;;;;;;;7.23;3.23;;;;;;;-145.18;100.00;60484.78;5055070;28;20023;-69
2023/01/09 01:58:20;;;;;;;6.80;3.63;;;;;;;-145.18;100.00;60484.78;5045474;28;20084;-68
2023/01/09 02:00:46;;;;;;;7.40;3.20;;;;;;;-145.18;100.00;60484.78;5054903;28;20029;-68
2023/01/09 02:03:16;;;;;;;11.47;3.43;;;;;;;-145.18;100.00;60484.78;5050867;28;20036;-68
2023/01/09 02:05:43;;;;;;;6.90;3.40;;;;;;;-145.18;100.00;60484.78;5051322;28;20029;-68
2023/01/09 02:08:08;;;;;;;6.63;3.60;;;;;;;-145.18;100.00;60484.78;5054613;28;20086;-68
2023/01/09 02:10:36;;;;;;;5.60;2.97;;;;;;;-145.18;100.00;60484.78;5046396;28;20029;-67
2023/01/09 02:13:03;;;;;;;8.73;3.90;;;;;;;-145.18;100.00;60484.78;5034924;28;20069;-68
2023/01/09 02:15:42;;;;;;;8.80;4.37;;;;;;;-145.18;100.00;60484.78;5054102;28;20050;-68
2023/01/09 02:18:18;;;;;;;7.30;3.60;;;;;;;-145.18;100.00;60484.78;5054337;28;20111;-68
2023/01/09 02:20:56;;;;;;;7.20;3.97;;;;;;;-145.18;100.00;60484.78;5054022;28;20042;-69
2023/01/09 02:23:46;;;;;;;10.97;3.90;;;;;;;-145.18;100.00;60484.78;5054445;28;20081;-68
2023/01/09 02:26:26;;;;;;;7.53;3.40;;;;;;;-145.18;100.00;60484.78;5054358;28;20026;-68
2023/01/09 02:29:19;;;;;;;6.83;3.43;;;;;;;-145.18;100.00;60484.78;5052317;28;20048;-68
2023/01/09 02:31:52;;;;;;;8.93;4.27;;;;;;;-145.18;100.00;60484.78;5043059;28;20076;-68
2023/01/09 02:34:32;;;;;;;7.53;4.57;;;;;;;-145.18;100.00;60484.78;5039060;28;20029;-68
2023/01/09 02:37:35;;;;;;;7.43;4.33;;;;;;;-145.18;100.00;60484.78;5052042;28;20113;-69
2023/01/09 02:40:09;;;;;;;9.27;4.70;;;;;;;-145.18;100.00;60484.78;4956207;28;20046;-68
2023/01/09 02:42:36;;;;;;;7.13;4.70;;;;;;;-145.18;100.00;60484.78;5016384;28;20091;-68
2023/01/09 02:45:01;;;;;;;10.33;5.03;;;;;;;-145.18;100.00;60484.78;5034101;28;20111;-68
2023/01/09 02:47:28;;;;;;;10.03;5.33;;;;;;;-145.18;100.00;60484.78;5033901;28;20049;-68
2023/01/09 02:50:04;;;;;;;9.37;4.87;;;;;;;-145.18;100.00;60484.78;5047932;28;20388;-68
2023/01/09 02:52:46;;;;;;;10.60;5.67;;;;;;;-145.18;100.00;60484.78;5041698;28;20025;-68
2023/01/09 02:55:46;;;;;;;11.13;4.97;;;;;;;-145.18;100.00;60484.78;5053635;28;20021;-68
2023/01/09 02:58:49;;;;;;;10.50;5.33;;;;;;;-145.18;100.00;60484.78;5039263;28;20026;-68
2023/01/09 03:01:43;;;;;;;8.47;4.77;;;;;;;-145.18;100.00;60484.78;5033977;28;20033;-69
2023/01/09 03:04:30;;;;;;;6.87;3.43;;;;;;;-145.18;100.00;60484.78;5034078;28;20021;-68
2023/01/09 03:07:07;;;;;;;6.37;3.67;;;;;;;-145.18;100.00;60484.78;5053250;28;20678;-68
2023/01/09 03:09:37;;;;;;;10.23;4.50;;;;;;;-145.18;100.00;60484.78;5043788;28;20029;-68
2023/01/09 03:12:09;;;;;;;7.43;4.20;;;;;;;-145.18;100.00;60484.78;5033729;28;20108;-69
2023/01/09 03:14:40;;;;;;;8.30;4.23;;;;;;;-145.18;100.00;60484.78;5049333;28;20025;-68
2023/01/09 03:17:11;;;;;;;6.88;4.32;;;;;;;-145.18;100.00;60484.78;5053497;28;20036;-68
2023/01/09 03:19:37;;;;;;;9.50;3.80;;;;;;;-145.18;100.00;60484.78;5053150;28;20499;-68
2023/01/09 03:22:03;;;;;;;7.57;3.53;;;;;;;-145.18;100.00;60484.78;5053177;28;20020;-68
2023/01/09 03:24:28;;;;;;;4.97;3.13;;;;;;;-145.18;100.00;60484.78;5053171;28;20361;-71
2023/01/09 03:26:54;;;;;;;5.23;2.63;;;;;;;-145.18;100.00;60484.78;5053326;28;20475;-70
2023/01/09 03:29:20;;;;;;;5.90;3.00;;;;;;;-145.18;100.00;60484.78;5052500;28;20031;-70
2023/01/09 03:31:45;;;;;;;7.57;3.10;;;;;;;-145.18;100.00;60484.78;5042721;28;20018;-69
2023/01/09 03:34:11;;;;;;;5.87;3.20;;;;;;;-145.18;100.00;60484.78;5040303;28;20023;-69
2023/01/09 03:36:36;;;;;;;5.03;2.10;;;;;;;-145.18;100.00;60484.78;5052912;28;20032;-69
2023/01/09 03:39:02;;;;;;;3.03;1.47;;;;;;;-145.18;100.00;60484.78;5050092;28;20124;-69
2023/01/09 03:41:27;;;;;;;6.37;2.30;;;;;;;-145.18;100.00;60484.78;5052991;28;20029;-69
2023/01/09 03:43:52;;;;;;;4.53;1.90;;;;;;;-145.18;100.00;60484.78;5053057;28;20038;-70
2023/01/09 03:46:18;;;;;;;4.60;2.20;;;;;;;-145.18;100.00;60484.78;5052755;28;20387;-70
2023/01/09 03:48:43;;;;;;;4.23;2.10;;;;;;;-145.18;100.00;60484.78;5036715;28;20109;-69
2023/01/09 03:51:09;;;;;;;7.33;2.60;;;;;;;-145.18;100.00;60484.78;5036812;28;20079;-69
2023/01/09 03:53:34;;;;;;;5.17;2.50;;;;;;;-145.18;100.00;60484.78;5040751;28;20017;-69
2023/01/09 03:55:59;;;;;;;4.83;2.40;;;;;;;-145.18;100.00;60484.78;5019007;28;20067;-69
2023/01/09 03:58:25;;;;;;;7.93;2.60;;;;;;;-145.18;100.00;60484.78;5052510;28;20045;-69
2023/01/09 04:00:55;;;;;;;6.17;2.60;;;;;;;-145.18;100.00;60484.78;5052768;28;20059;-69
2023/01/09 04:03:21;;;;;;;5.27;2.60;;;;;;;-145.18;100.00;60484.78;5052364;28;20079;-69
2023/01/09 04:05:48;;;;;;;6.97;2.97;;;;;;;-145.18;100.00;60484.78;5051782;28;20021;-70
2023/01/09 04:08:14;;;;;;;5.33;2.80;;;;;;;-145.18;100.00;60484.78;5050599;28;20025;-71
2023/01/09 04:10:42;;;;;;;5.43;2.43;;;;;;;-145.18;100.00;60484.78;5052242;28;20508;-69
2023/01/09 04:13:07;;;;;;;4.07;2.40;;;;;;;-145.18;100.00;60484.78;5052125;28;20029;-69
2023/01/09 04:15:33;;;;;;;7.13;2.70;;;;;;;-145.18;100.00;60484.78;5052002;28;20158;-69
2023/01/09 04:17:58;;;;;;;5.73;2.87;;;;;;;-145.18;100.00;60484.78;5052490;28;20021;-69
2023/01/09 04:20:23;;;;;;;8.17;3.20;;;;;;;-145.18;100.00;60484.78;5052061;28;20025;-69
2023/01/09 04:22:49;;;;;;;7.53;3.40;;;;;;;-145.18;100.00;60484.78;5052052;28;20047;-70
2023/01/09 04:25:14;;;;;;;7.67;3.37;;;;;;;-145.18;100.00;60484.78;5052235;28;20024;-69
2023/01/09 04:27:40;;;;;;;8.73;3.80;;;;;;;-145.18;100.00;60484.78;5052705;28;20021;-70
2023/01/09 04:30:06;;;;;;;10.20;4.30;;;;;;;-145.18;100.00;60484.78;5041571;28;20035;-69
2023/01/09 04:32:31;;;;;;;9.87;4.30;;;;;;;-145.18;100.00;60484.78;5039512;28;20059;-70
2023/01/09 04:34:57;;;;;;;7.83;4.10;;;;;;;-145.18;100.00;60484.78;5052468;28;20499;-69
2023/01/09 04:37:22;;;;;;;8.90;3.70;;;;;;;-145.18;100.00;60484.78;5043487;28;20754;-69
2023/01/09 04:39:48;;;;;;;8.37;3.53;;;;;;;-145.18;100.00;60484.78;5032344;28;20026;-69
2023/01/09 04:42:14;;;;;;;7.97;3.80;;;;;;;-145.18;100.00;60484.78;5031984;28;20036;-69
2023/01/09 04:44:40;;;;;;;10.57;4.70;;;;;;;-145.18;100.00;60484.78;5031881;28;20061;-69
2023/01/09 04:47:05;;;;;;;7.27;3.93;;;;;;;-145.18;100.00;60484.78;5014358;28;20477;-69
2023/01/09 04:49:30;;;;;;;7.10;3.43;;;;;;;-145.18;100.00;60484.78;5042791;28;20040;-69
2023/01/09 04:51:56;;;;;;;6.97;3.70;;;;;;;-145.18;100.00;60484.78;5031853;28;20462;-69
2023/01/09 04:54:21;;;;;;;9.27;4.10;;;;;;;-145.18;100.00;60484.78;5032034;28;20057;-69
2023/01/09 04:56:47;;;;;;;8.97;3.80;;;;;;;-145.18;100.00;60484.78;5032021;28;20079;-68
2023/01/09 04:59:13;;;;;;;11.57;4.63;;;;;;;-145.18;100.00;60484.78;5032004;28;20562;-69
2023/01/09 05:01:38;;;;;;;10.27;4.27;;;;;;;-145.18;100.00;60484.78;5031850;28;20117;-69
2023/01/09 05:04:04;;;;;;;9.20;4.10;;;;;;;-145.18;100.00;60484.78;5031875;28;20108;-70
2023/01/09 05:06:30;;;;;;;8.70;4.10;;;;;;;-145.18;100.00;60484.78;5050399;28;20427;-69
2023/01/09 05:08:56;;;;;;;8.43;4.17;;;;;;;-145.18;100.00;60484.78;5030344;28;20029;-69
2023/01/09 05:11:22;;;;;;;8.37;4.40;;;;;;;-145.18;100.00;60484.78;5031717;28;20044;-69
2023/01/09 05:13:47;;;;;;;12.20;4.50;;;;;;;-145.18;100.00;60484.78;5050153;28;20029;-70
2023/01/09 05:16:12;;;;;;;8.57;4.80;;;;;;;-145.18;100.00;60484.78;5052068;28;20059;-69
2023/01/09 05:18:38;;;;;;;10.90;5.17;;;;;;;-145.18;100.00;60484.78;5055700;28;20082;-69
2023/01/09 05:21:04;;;;;;;11.23;5.10;;;;;;;-145.18;100.00;60484.78;5055563;28;20361;-70
2023/01/09 05:23:29;;;;;;;12.77;5.47;;;;;;;-145.18;100.00;60484.78;5055380;28;20028;-69
2023/01/09 05:25:54;;;;;;;13.10;7.20;;;;;;;-145.18;100.00;60484.78;5052064;28;20496;-69
2023/01/09 05:28:20;;;;;;;11.83;6.13;;;;;;;-145.18;100.00;60484.78;5054596;28;20024;-70
2023/01/09 05:30:46;;;;;;;12.97;6.30;;;;;;;-145.18;100.00;60484.78;5050561;28;20108;-69
2023/01/09 05:33:11;;;;;;;14.17;7.33;;;;;;;-145.18;100.00;60484.78;5035588;28;20035;-70
2023/01/09 05:35:37;;;;;;;14.97;7.67;;;;;;;-145.18;100.00;60484.78;5055321;28;20021;-70
2023/01/09 05:38:02;;;;;;;13.50;7.07;;;;;;;-145.18;100.00;60484.78;5055141;28;20539;-70
2023/01/09 05:40:27;;;;;;;15.47;7.93;;;;;;;-145.18;100.00;60484.78;5054250;28;20100;-70
2023/01/09 05:42:53;;;;;;;14.87;7.90;;;;;;;-145.18;100.00;60484.78;5054961;28;20033;-71
2023/01/09 05:45:18;;;;;;;14.87;7.47;;;;;;;-145.18;100.00;60484.78;5054820;28;20051;-70
2023/01/09 05:47:44;;;;;;;16.70;7.97;;;;;;;-145.18;100.00;60484.78;5041110;28;20029;-70
2023/01/09 05:50:11;;;;;;;17.47;8.30;;;;;;;-145.18;100.00;60484.78;5035157;28;20069;-71
2023/01/09 05:52:36;;;;;;;19.73;8.80;;;;;;;-145.18;100.00;60484.78;5034768;28;20029;-70
2023/01/09 05:55:03;;;;;;;15.83;8.43;;;;;;;-145.18;100.00;60484.78;5035143;28;20492;-70
2023/01/09 05:57:28;;;;;;;17.20;7.33;;;;;;;-145.18;100.00;60484.78;5053792;28;20112;-70
2023/01/09 05:59:54;;;;;;;18.00;8.53;;;;;;;-145.18;100.00;60484.78;5051446;28;20092;-70
2023/01/09 06:02:19;;;;;;;22.27;8.97;;;;;;;-145.18;100.00;60484.78;5050330;28;20037;-70
2023/01/09 06:04:45;;;;;;;17.27;8.60;;;;;;;-145.18;100.00;60484.78;5046773;28;20029;-70
2023/01/09 06:07:10;;;;;;;18.83;7.87;;;;;;;-145.18;100.00;60484.78;5054709;28;20021;-70
2023/01/09 06:09:36;;;;;;;19.53;8.70;;;;;;;-145.18;100.00;60484.78;5054732;28;20105;-70
2023/01/09 06:12:01;;;;;;;15.27;8.27;;;;;;;-145.18;100.00;60484.78;5054412;28;20477;-70
2023/01/09 06:14:26;;;;;;;19.33;9.33;;;;;;;-145.18;100.00;60484.78;5054289;28;20033;-70
2023/01/09 06:16:52;;;;;;;19.77;8.83;;;;;;;-145.18;100.00;60484.78;5054755;28;20044;-70
2023/01/09 06:19:17;;;;;;;22.67;9.50;;;;;;;-145.18;100.00;60484.78;5054397;28;20032;-70
2023/01/09 06:21:42;;;;;;;20.50;10.17;;;;;;;-145.18;100.00;60484.78;5036187;28;20067;-70
2023/01/09 06:24:08;;;;;;;21.73;9.37;;;;;;;-145.18;100.00;60484.78;5034766;28;20033;-70
2023/01/09 06:26:33;;;;;;;24.17;10.57;;;;;;;-145.18;100.00;60484.78;5035512;28;20397;-70
2023/01/09 06:29:00;;;;;;;24.83;11.10;;;;;;;-145.18;100.00;60484.78;5038857;28;20087;-70
2023/01/09 06:31:26;;;;;;;24.53;10.23;;;;;;;-145.18;100.00;60484.78;5040573;28;20108;-70
2023/01/09 06:33:52;;;;;;;23.03;10.63;;;;;;;-145.18;100.00;60484.78;5033991;28;20112;-70
2023/01/09 06:36:17;;;;;;;22.27;9.53;;;;;;;-145.18;100.00;60484.78;5052671;28;20561;-70
2023/01/09 06:38:42;;;;;;;21.70;9.87;;;;;;;-145.18;100.00;60484.78;5042078;28;20045;-70
2023/01/09 06:41:08;;;;;;;25.97;10.13;;;;;;;-145.18;100.00;60484.78;5053999;28;20465;-70
2023/01/09 06:43:33;;;;;;;21.93;9.57;;;;;;;-145.18;100.00;60484.78;5046338;28;20033;-70
2023/01/09 06:45:59;;;;;;;22.33;9.93;;;;;;;-145.18;100.00;60484.78;5033847;28;20030;-70
2023/01/09 06:48:24;;;;;;;22.77;9.80;;;;;;;-145.18;100.00;60484.78;5049641;28;20044;-70
2023/01/09 06:50:53;;;;;;;25.77;10.33;;;;;;;-145.18;100.00;60484.78;5045572;28;20021;-70
2023/01/09 06:53:19;;;;;;;22.17;9.57;;;;;;;-145.18;100.00;60484.78;5033945;28;20389;-70
2023/01/09 06:55:44;;;;;;;19.60;8.17;;;;;;;-145.18;100.00;60484.78;5052363;28;20017;-70
2023/01/09 06:58:10;;;;;;;28.40;10.00;;;;;;;-145.18;100.00;60484.78;5035859;28;20492;-70
2023/01/09 07:00:36;;;;;;;20.80;8.67;;;;;;;-145.18;100.00;60484.78;5051993;28;20037;-71
2023/01/09 07:03:01;;;;;;;24.57;10.43;;;;;;;-145.18;100.00;60484.78;5043065;28;20024;-69
2023/01/09 07:05:27;;;;;;;23.80;9.67;;;;;;;-145.18;100.00;60484.78;5053340;28;20063;-69
2023/01/09 07:07:52;;;;;;;24.50;9.10;;;;;;;-145.18;100.00;60484.78;5053763;28;20029;-69
2023/01/09 07:10:18;;;;;;;24.20;10.00;;;;;;;-145.18;100.00;60484.78;5053849;28;20469;-69
2023/01/09 07:12:43;;;;;;;18.83;8.20;;;;;;;-145.18;100.00;60484.78;5053611;28;20037;-70
2023/01/09 07:15:09;;;;;;;29.87;10.03;;;;;;;-145.18;100.00;60484.78;5053236;28;20043;-70
2023/01/09 07:17:34;;;;;;;25.47;8.80;;;;;;;-145.18;100.00;60484.78;5053413;28;20025;-69
2023/01/09 07:20:00;;;;;;;27.03;10.47;;;;;;;-145.18;100.00;60484.78;5050771;28;20102;-70
2023/01/09 07:22:26;;;;;;;24.80;10.37;;;;;;;-145.18;100.00;60484.78;5053294;28;20086;-69
2023/01/09 07:24:51;;;;;;;19.03;8.77;;;;;;;-145.18;100.00;60484.78;5052815;28;20120;-69
2023/01/09 07:27:16;;;;;;;24.07;9.70;;;;;;;-145.18;100.00;60484.78;5053032;28;20027;-70
2023/01/09 07:29:42;;;;;;;22.40;9.40;;;;;;;-145.18;100.00;60484.78;5048507;28;20408;-69
2023/01/09 07:32:07;;;;;;;24.60;9.23;;;;;;;-145.18;100.00;60484.78;5035896;28;20095;-70
2023/01/09 07:34:32;;;;;;;19.63;8.67;;;;;;;-145.18;100.00;60484.78;5036661;28;20021;-70
2023/01/09 07:36:58;;;;;;;21.77;8.80;;;;;;;-145.18;100.00;60484.78;5050187;28;20047;-69
2023/01/09 07:39:23;;;;;;;25.27;9.30;;;;;;;-145.18;100.00;60484.78;5047908;28;20134;-70
2023/01/09 07:41:49;;;;;;;21.53;9.80;;;;;;;-145.18;100.00;60484.78;5050582;28;20040;-69
2023/01/09 07:44:15;;;;;;;16.83;7.20;;;;;;;-145.18;100.00;60484.78;5052720;28;20029;-70
2023/01/09 07:46:40;;;;;;;21.40;8.80;;;;;;;-145.18;100.00;60484.78;5052530;28;20389;-70
2023/01/09 07:49:06;;;;;;;16.57;7.67;;;;;;;-145.18;100.00;60484.78;5052817;28;20036;-70
2023/01/09 07:51:31;;;;;;;17.57;7.80;;;;;;;-145.18;100.00;60484.78;5053035;28;20040;-69
2023/01/09 07:53:57;;;;;;;18.67;8.40;;;;;;;-145.18;100.00;60484.78;5052578;28;20107;-69
2023/01/09 07:56:22;;;;;;;20.80;6.83;;;;;;;-145.18;100.00;60484.78;5052862;28;20024;-69
2023/01/09 07:58:48;;;;;;;17.50;5.77;;;;;;;-145.18;100.00;60484.78;5052526;28;20389;-69
2023/01/09 08:01:14;;;;;;;16.50;7.23;;;;;;;-145.18;100.00;60484.78;5052857;28;20086;-69
2023/01/09 08:03:40;;;;;;;12.73;5.90;;;;;;;-145.18;100.00;60484.78;5051966;28;20029;-69
2023/01/09 08:06:05;;;;;;;17.03;6.57;;;;;;;-145.18;100.00;60484.78;5052462;28;20031;-70
2023/01/09 08:08:30;;;;;;;20.33;7.30;;;;;;;-145.18;100.00;60484.78;5052271;28;20032;-69
2023/01/09 08:10:56;;;;;;;13.10;6.30;;;;;;;-145.18;100.00;60484.78;5052377;28;20037;-69
2023/01/09 08:13:21;;;;;;;13.23;6.10;;;;;;;-145.18;100.00;60484.78;5052635;28;20102;-69
2023/01/09 08:15:47;;;;;;;11.17;4.70;;;;;;;-145.18;100.00;60484.78;5051728;28;20472;-69
2023/01/09 08:18:12;;;;;;;14.57;5.33;;;;;;;-145.18;100.00;60484.78;5052464;28;20028;-70
2023/01/09 08:20:37;;;;;;;21.27;7.60;;;;;;;-145.18;100.00;60484.78;5052153;28;20116;-70
2023/01/09 08:23:03;;;;;;;14.87;5.70;;;;;;;-145.18;100.00;60484.78;5052101;28;20108;-70
2023/01/09 08:25:28;;;;;;;13.10;5.67;;;;;;;-145.18;100.00;60484.78;5051952;28;20381;-69
2023/01/09 08:27:53;;;;;;;14.00;5.80;;;;;;;-145.18;100.00;60484.78;5052107;28;20025;-69
2023/01/09 08:30:19;;;;;;;13.13;5.77;;;;;;;-145.18;100.00;60484.78;5052168;28;20025;-69
2023/01/09 08:32:52;;;;;;;13.57;5.53;;;;;;;-145.18;100.00;60484.78;5051813;28;20020;-70
2023/01/09 08:35:18;;;;;;;17.67;6.30;;;;;;;-145.18;100.00;60484.78;5051952;28;20039;-69
2023/01/09 08:37:45;;;;;;;13.40;6.50;;;;;;;-145.18;100.00;60484.78;5052078;28;20047;-69
2023/01/09 08:40:12;;;;;;;12.10;6.37;;;;;;;-145.18;100.00;60484.78;5051924;28;20439;-69
2023/01/09 08:48:06;;;;;;;24.47;7.70;;;;;;;-145.18;100.00;60484.78;5051856;28;20036;-70
2023/01/09 08:50:31;;;;;;;15.43;7.90;;;;;;;-145.18;100.00;60484.78;5051535;28;20393;-69
2023/01/09 08:52:57;;;;;;;17.80;8.77;;;;;;;-145.18;100.00;60484.78;5033309;28;20465;-70
2023/01/09 08:55:22;;;;;;;18.23;8.00;;;;;;;-145.18;100.00;60484.78;5051598;28;20033;-69
2023/01/09 08:57:51;;;;;;;16.47;8.23;;;;;;;-145.18;100.00;60484.78;5051777;28;20021;-69
2023/01/09 09:00:19;;;;;;;18.60;8.53;;;;;;;-145.18;100.00;60484.78;5051557;28;20376;-69
2023/01/09 09:02:44;;;;;;;17.03;7.80;;;;;;;-145.18;100.00;60484.78;5051493;28;20033;-69
2023/01/09 09:05:10;;;;;;;16.60;8.53;;;;;;;-145.18;100.00;60484.78;5051289;28;20025;-70
2023/01/09 09:07:35;;;;;;;22.27;9.67;;;;;;;-145.18;100.00;60484.78;5051864;28;20108;-69
2023/01/09 09:10:01;;;;;;;18.87;8.20;;;;;;;-145.18;100.00;60484.78;5051900;28;20029;-69
2023/01/09 09:12:26;;;;;;;21.20;9.40;;;;;;;-145.18;100.00;60484.78;5051460;28;20535;-69
2023/01/09 09:17:35;;;;;;;19.10;9.63;;;;;;;-145.18;100.00;60484.78;5051449;28;20071;-69
2023/01/09 09:20:01;;;;;;;20.90;9.47;;;;;;;-145.18;100.00;60484.78;5051298;28;20427;-69
2023/01/09 09:22:26;;;;;;;22.53;10.40;;;;;;;-145.18;100.00;60484.78;5051307;28;20496;-69
2023/01/09 09:24:51;;;;;;;20.47;9.70;;;;;;;-145.18;100.00;60484.78;5051057;28;20043;-69
2023/01/09 09:27:17;;;;;;;19.43;10.33;;;;;;;-145.18;100.00;60484.78;5051390;28;20029;-69
2023/01/09 09:29:44;;;;;;;20.53;9.33;;;;;;;-145.18;100.00;60484.78;5050862;28;20032;-70
2023/01/09 09:32:09;;;;;;;18.97;9.80;;;;;;;-145.18;100.00;60484.78;5051037;28;20048;-70
2023/01/09 09:34:34;;;;;;;20.17;9.17;;;;;;;-145.18;100.00;60484.78;5051606;28;20068;-69
2023/01/09 09:37:00;;;;;;;20.13;9.97;;;;;;;-145.18;100.00;60484.78;5051202;28;20033;-69
2023/01/09 09:39:25;;;;;;;18.67;8.80;;;;;;;-145.18;100.00;60484.78;5051127;28;20029;-69
2023/01/09 09:45:13;;;;;;;18.17;9.20;;;;;;;-145.18;100.00;60484.78;5031170;28;20044;-69
2023/01/09 09:47:46;;;;;;;19.67;8.40;;;;;;;-145.18;100.00;60484.78;5031862;28;20036;-69
2023/01/09 09:50:15;;;;;;;17.47;8.60;;;;;;;-145.18;100.00;60484.78;5049841;28;20029;-70
2023/01/09 09:52:51;;;;;;;16.00;8.70;;;;;;;-145.18;100.00;60484.78;5051023;28;20033;-70
2023/01/09 09:55:24;;;;;;;21.33;8.77;;;;;;;-145.18;100.00;60484.78;5051132;28;20068;-70
2023/01/09 09:57:50;;;;;;;18.50;8.50;;;;;;;-145.18;100.00;60484.78;5051002;28;20052;-69
2023/01/09 10:00:20;;;;;;;18.37;9.00;;;;;;;-145.18;100.00;60484.78;5051006;28;20025;-69
2023/01/09 10:03:04;;;;;;;17.50;7.10;;;;;;;-145.18;100.00;60484.78;5052341;28;20178;-69
2023/01/09 10:05:34;;;;;;;15.13;7.53;;;;;;;-145.18;100.00;60484.78;5054006;28;20052;-69
2023/01/09 10:08:14;;;;;;;16.30;6.80;;;;;;;-145.18;100.00;60484.78;5055056;28;20039;-70
2023/01/09 10:10:46;;;;;;;33.03;7.10;;;;;;;-145.18;100.00;60484.78;5055026;28;20033;-69
2023/01/09 10:16:39;;;;;;;13.80;5.80;;;;;;;-145.18;100.00;60484.78;5031136;28;20037;-69
2023/01/09 10:19:23;;;;;;;13.63;6.87;;;;;;;-145.18;100.00;60484.78;5054368;28;20083;-69
2023/01/09 10:22:16;;;;;;;13.17;6.10;;;;;;;-145.18;100.00;60484.78;5054494;28;20388;-70
2023/01/09 10:24:57;;;;;;;15.00;6.43;;;;;;;-145.18;100.00;60484.78;5054665;28;20020;-69
2023/01/09 10:27:28;;;;;;;15.82;6.70;;;;;;;-145.18;100.00;60484.78;5054634;28;20512;-69
2023/01/09 10:30:10;;;;;;;12.40;7.18;;;;;;;-145.18;100.00;60484.78;5054331;28;20025;-69
2023/01/09 10:32:43;;;;;;;13.02;5.95;;;;;;;-145.18;100.00;60484.78;5054237;28;20029;-70
2023/01/09 10:35:24;;;;;;;13.27;5.37;;;;;;;-145.18;100.00;60484.78;5054175;28;20103;-69
2023/01/09 10:37:52;;;;;;;15.07;6.63;;;;;;;-145.18;100.00;60484.78;5054089;28;20032;-69
2023/01/09 10:40:41;;;;;;;15.13;6.43;;;;;;;-145.18;100.00;60484.78;5053928;28;20021;-69
2023/01/09 10:43:18;;;;;;;12.57;5.50;;;;;;;-145.18;100.00;60484.78;5054221;28;20017;-70
2023/01/09 10:45:52;;;;;;;18.43;6.40;;;;;;;-145.18;100.00;60484.78;5054133;28;20536;-69
2023/01/09 10:48:40;;;;;;;16.77;7.20;;;;;;;-145.18;100.00;60484.78;5054386;28;20768;-70
2023/01/09 10:51:18;;;;;;;16.83;6.90;;;;;;;-145.18;100.00;60484.78;5054197;28;20079;-69
2023/01/09 10:53:49;;;;;;;18.80;6.50;;;;;;;-145.18;100.00;60484.78;5053888;28;20060;-69
2023/01/09 10:56:14;;;;;;;15.85;7.28;;;;;;;-145.18;100.00;60484.78;5053834;28;20025;-69
2023/01/09 10:58:39;;;;;;;13.87;5.93;;;;;;;-145.18;100.00;60484.78;5053706;28;20048;-70
2023/01/09 11:01:06;;;;;;;13.47;7.10;;;;;;;-145.18;100.00;60484.78;5053834;28;20043;-69
2023/01/09 11:03:32;;;;;;;17.83;6.67;;;;;;;-145.18;100.00;60484.78;5052989;28;20025;-70
2023/01/09 11:05:58;;;;;;;11.97;5.97;;;;;;;-145.18;100.00;60484.78;5047379;28;20028;-69
2023/01/09 11:08:39;;;;;;;16.90;6.30;;;;;;;-145.18;100.00;60484.78;5039981;28;20060;-69
2023/01/09 11:11:04;;;;;;;12.43;5.60;;;;;;;-145.18;100.00;60484.78;5051881;28;20414;-70
2023/01/09 11:13:32;;;;;;;16.73;6.27;;;;;;;-145.18;100.00;60484.78;5051515;28;20028;-70
2023/01/09 11:16:13;;;;;;;11.27;4.93;;;;;;;-145.18;100.00;60484.78;5051474;28;20451;-70
2023/01/09 11:18:47;;;;;;;10.63;4.77;;;;;;;-145.18;100.00;60484.78;5042663;28;20022;-70
2023/01/09 11:21:30;;;;;;;12.67;4.53;;;;;;;-145.18;100.00;60484.78;5044874;28;20427;-70
2023/01/09 11:24:15;;;;;;;9.87;4.07;;;;;;;-145.18;100.00;60484.78;5050699;28;20021;-70
2023/01/09 11:26:40;;;;;;;8.80;3.97;;;;;;;-145.18;100.00;60484.78;5047653;28;20504;-70